Time;durP1;ratioP1;P1;durP2;ratioP2;P2;SDS_P1;SDS_P2;PMS_P1;PMS_P2;Temp;Humidity;BMP_temperature;BMP_pressure;BME280_temperature;BME280_humidity;BME280_pressure;Samples;Min_cycle;Max_cycle;Signal;HPM_P1;HPM_P2
2023/08/21 00:00:44;;;;;;;0.10;0.10;;;;;;;23.42;100.00;99623.72;5094046;28;20198;-55
2023/08/21 00:03:31;;;;;;;0.10;0.10;;;;;;;23.39;100.00;99624.91;5092315;28;20231;-55
2023/08/21 00:06:18;;;;;;;0.10;0.10;;;;;;;23.28;100.00;99625.25;5093827;28;20205;-55
2023/08/21 00:09:06;;;;;;;0.10;0.10;;;;;;;23.29;100.00;99624.25;5093753;28;20195;-55
2023/08/21 00:11:53;;;;;;;0.10;0.10;;;;;;;23.32;100.00;99628.47;5093789;28;20301;-55
2023/08/21 00:14:40;;;;;;;0.10;0.10;;;;;;;23.33;100.00;99627.44;5092819;28;20198;-55
2023/08/21 00:17:27;;;;;;;0.10;0.10;;;;;;;23.28;100.00;99621.72;5093580;28;20240;-55
2023/08/21 00:20:14;;;;;;;0.10;0.10;;;;;;;23.34;100.00;99621.88;5093551;28;20213;-55
2023/08/21 00:23:00;;;;;;;0.10;0.10;;;;;;;23.33;100.00;99624.75;5093332;28;20238;-55
2023/08/21 00:25:49;;;;;;;0.10;0.10;;;;;;;23.30;100.00;99625.94;5093489;28;20214;-55
2023/08/21 00:28:36;;;;;;;0.10;0.10;;;;;;;23.24;100.00;99623.03;5093449;28;20196;-55
2023/08/21 00:31:23;;;;;;;0.10;0.10;;;;;;;23.13;100.00;99619.66;5093303;28;20194;-55
2023/08/21 00:34:10;;;;;;;0.10;0.10;;;;;;;23.08;100.00;99621.19;5092224;28;20191;-55
2023/08/21 00:36:56;;;;;;;0.10;0.10;;;;;;;22.99;100.00;99622.19;5093112;28;20333;-55
2023/08/21 00:39:44;;;;;;;0.10;0.10;;;;;;;23.03;100.00;99623.53;5093399;28;20191;-55
2023/08/21 00:42:32;;;;;;;0.10;0.10;;;;;;;23.09;100.00;99617.47;5092965;28;20307;-55
2023/08/21 00:45:19;;;;;;;0.10;0.10;;;;;;;23.05;100.00;99606.13;5092139;28;20219;-55
2023/08/21 00:48:07;;;;;;;0.10;0.10;;;;;;;23.03;100.00;99612.72;5091894;28;20195;-55
2023/08/21 00:50:54;;;;;;;0.10;0.10;;;;;;;23.06;100.00;99606.97;5093187;28;20187;-55
2023/08/21 00:53:41;;;;;;;0.10;0.10;;;;;;;23.05;100.00;99608.00;5092039;28;20195;-55
2023/08/21 00:56:29;;;;;;;0.10;0.10;;;;;;;22.97;100.00;99598.03;5093032;28;20194;-55
2023/08/21 00:59:17;;;;;;;0.10;0.10;;;;;;;22.94;100.00;99609.16;5092953;28;20210;-55
2023/08/21 01:02:03;;;;;;;0.10;0.10;;;;;;;22.96;100.00;99612.53;5091764;28;20667;-55
2023/08/21 01:04:50;;;;;;;0.10;0.10;;;;;;;22.99;100.00;99616.78;5091434;28;20235;-55
2023/08/21 01:07:49;;;;;;;0.10;0.10;;;;;;;22.98;100.00;99612.41;5092745;28;20199;-55
2023/08/21 01:10:51;;;;;;;0.10;0.10;;;;;;;22.91;100.00;99612.22;5092879;28;20199;-55
2023/08/21 01:13:49;;;;;;;0.10;0.10;;;;;;;22.80;100.00;99615.19;5092640;28;20194;-55
2023/08/21 01:16:38;;;;;;;0.10;0.10;;;;;;;22.80;100.00;99624.16;5092859;28;20241;-55
2023/08/21 01:19:32;;;;;;;0.10;0.10;;;;;;;22.79;100.00;99617.06;5091538;28;20198;-55
2023/08/21 01:22:19;;;;;;;0.10;0.10;;;;;;;22.81;100.00;99628.53;5092758;28;20206;-55
2023/08/21 01:25:09;;;;;;;0.10;0.10;;;;;;;22.79;100.00;99625.16;5092368;28;20203;-55
2023/08/21 01:27:56;;;;;;;0.10;0.10;;;;;;;22.72;100.00;99626.81;5092477;28;20230;-55
2023/08/21 01:30:44;;;;;;;0.10;0.10;;;;;;;22.70;100.00;99638.81;5092521;28;20202;-55
2023/08/21 01:33:36;;;;;;;0.10;0.10;;;;;;;22.73;100.00;99649.28;5090259;28;20290;-55
2023/08/21 01:36:23;;;;;;;0.10;0.10;;;;;;;22.68;100.00;99641.66;5092138;28;20265;-55
2023/08/21 01:39:09;;;;;;;0.10;0.10;;;;;;;22.63;100.00;99644.00;5092485;28;20217;-55
2023/08/21 01:41:58;;;;;;;0.10;0.10;;;;;;;22.70;100.00;99642.34;5091446;28;20365;-55
2023/08/21 01:44:46;;;;;;;0.10;0.10;;;;;;;22.60;100.00;99649.75;5091154;28;20191;-55
2023/08/21 01:47:33;;;;;;;0.10;0.10;;;;;;;22.59;100.00;99645.34;5091348;28;20202;-55
2023/08/21 01:50:20;;;;;;;0.10;0.10;;;;;;;22.54;100.00;99644.97;5092520;28;20192;-55
2023/08/21 01:53:06;;;;;;;0.10;0.10;;;;;;;22.45;100.00;99651.34;5092083;28;20323;-55
2023/08/21 01:55:53;;;;;;;0.10;0.10;;;;;;;22.42;100.00;99651.69;5091346;28;20187;-55
2023/08/21 01:58:42;;;;;;;0.10;0.10;;;;;;;22.39;100.00;99650.16;5091227;28;20194;-55
2023/08/21 02:01:28;;;;;;;0.10;0.10;;;;;;;22.30;100.00;99650.28;5090945;28;20191;-55
2023/08/21 02:04:15;;;;;;;0.10;0.10;;;;;;;22.25;100.00;99646.19;5090616;28;20214;-55
2023/08/21 02:07:02;;;;;;;0.10;0.10;;;;;;;22.23;100.00;99645.53;5091232;28;20194;-55
2023/08/21 02:09:49;;;;;;;0.10;0.10;;;;;;;22.17;100.00;99648.84;5091999;28;20190;-55
2023/08/21 02:12:36;;;;;;;0.10;0.10;;;;;;;22.23;100.00;99647.38;5092334;28;20202;-55
2023/08/21 02:15:29;;;;;;;0.10;0.10;;;;;;;22.22;100.00;99649.22;5091182;28;20194;-55
2023/08/21 02:18:16;;;;;;;0.10;0.10;;;;;;;22.13;100.00;99652.03;5089618;28;20198;-55
2023/08/21 02:21:04;;;;;;;0.10;0.10;;;;;;;22.13;100.00;99650.19;5092063;28;20198;-55
2023/08/21 02:23:50;;;;;;;0.10;0.10;;;;;;;22.17;100.00;99650.72;5091967;28;20358;-55
2023/08/21 02:26:37;;;;;;;0.10;0.10;;;;;;;22.23;100.00;99650.91;5092069;28;20195;-55
2023/08/21 02:29:24;;;;;;;0.10;0.10;;;;;;;22.10;100.00;99642.44;5091873;28;20300;-55
2023/08/21 02:32:12;;;;;;;0.10;0.10;;;;;;;22.13;100.00;99639.41;5092068;28;20202;-55
2023/08/21 02:34:59;;;;;;;0.10;0.10;;;;;;;22.10;100.00;99645.13;5090918;28;20257;-55
2023/08/21 02:37:46;;;;;;;0.10;0.10;;;;;;;22.05;100.00;99643.88;5093122;28;20226;-55
2023/08/21 02:40:33;;;;;;;0.10;0.10;;;;;;;22.06;100.00;99645.56;5095612;28;20207;-55
2023/08/21 02:43:20;;;;;;;0.00;0.00;;;;;;;22.10;100.00;99646.94;5094158;28;20222;-55
2023/08/21 02:46:08;;;;;;;0.10;0.10;;;;;;;21.99;100.00;99643.47;5095466;28;20190;-55
2023/08/21 02:48:57;;;;;;;0.10;0.10;;;;;;;21.99;100.00;99646.19;5094046;28;20191;-55
2023/08/21 02:51:43;;;;;;;0.10;0.10;;;;;;;22.07;100.00;99649.97;5094343;28;20195;-55
2023/08/21 02:54:30;;;;;;;0.10;0.10;;;;;;;22.09;100.00;99650.66;5095227;28;20186;-55
2023/08/21 02:57:17;;;;;;;0.10;0.10;;;;;;;22.04;100.00;99643.03;5095140;28;20207;-55
2023/08/21 03:00:06;;;;;;;0.00;0.00;;;;;;;21.97;100.00;99647.34;5095181;28;20210;-55
2023/08/21 03:02:52;;;;;;;0.10;0.10;;;;;;;21.89;100.00;99652.69;5092831;28;20195;-55
2023/08/21 03:05:41;;;;;;;0.10;0.10;;;;;;;21.97;100.00;99658.16;5094135;28;20195;-55
2023/08/21 03:08:28;;;;;;;0.10;0.10;;;;;;;21.89;100.00;99656.22;5095071;28;20194;-55
2023/08/21 03:11:14;;;;;;;0.10;0.10;;;;;;;21.89;100.00;99652.69;5093931;28;20186;-55
2023/08/21 03:14:01;;;;;;;0.10;0.10;;;;;;;21.95;100.00;99652.06;5095027;28;20220;-55
2023/08/21 03:16:48;;;;;;;0.10;0.10;;;;;;;21.90;100.00;99649.84;5093871;28;20203;-55
2023/08/21 03:19:35;;;;;;;0.10;0.10;;;;;;;21.94;100.00;99658.47;5092450;28;20191;-55
2023/08/21 03:22:23;;;;;;;0.10;0.10;;;;;;;21.94;100.00;99651.22;5094826;28;20249;-55
2023/08/21 03:25:11;;;;;;;0.10;0.10;;;;;;;21.85;100.00;99648.63;5094417;28;20214;-55
2023/08/21 03:27:58;;;;;;;0.10;0.10;;;;;;;21.77;100.00;99649.41;5093767;28;20199;-55
2023/08/21 03:30:45;;;;;;;0.10;0.10;;;;;;;21.71;100.00;99655.44;5094471;28;20616;-55
2023/08/21 03:33:32;;;;;;;0.10;0.10;;;;;;;21.71;100.00;99655.44;5092138;28;20290;-55
2023/08/21 03:36:19;;;;;;;0.10;0.10;;;;;;;21.76;100.00;99650.41;5094276;28;20194;-55
2023/08/21 03:39:09;;;;;;;0.10;0.10;;;;;;;21.80;100.00;99648.25;5093063;28;20195;-55
2023/08/21 03:42:02;;;;;;;0.10;0.10;;;;;;;21.73;100.00;99656.13;5093382;28;20265;-55
2023/08/21 03:44:50;;;;;;;0.10;0.10;;;;;;;21.73;100.00;99660.69;5093162;28;20702;-55
2023/08/21 03:47:37;;;;;;;0.10;0.10;;;;;;;21.72;100.00;99659.84;5093246;28;20281;-55
2023/08/21 03:50:30;;;;;;;0.10;0.10;;;;;;;21.71;100.00;99664.41;5093134;28;20191;-55
2023/08/21 03:53:17;;;;;;;0.10;0.10;;;;;;;21.72;100.00;99659.84;5094244;28;20308;-55
2023/08/21 03:56:05;;;;;;;0.10;0.10;;;;;;;21.81;100.00;99666.13;5093928;28;20194;-55
2023/08/21 03:58:52;;;;;;;0.10;0.10;;;;;;;21.76;100.00;99661.22;5094050;28;20191;-55
2023/08/21 04:01:39;;;;;;;0.10;0.10;;;;;;;21.73;100.00;99658.84;5093120;28;20290;-55
2023/08/21 04:04:26;;;;;;;0.10;0.10;;;;;;;21.74;100.00;99662.38;5091421;28;20219;-55
2023/08/21 04:07:14;;;;;;;0.10;0.10;;;;;;;21.79;100.00;99668.97;5092962;28;20277;-55
2023/08/21 04:10:01;;;;;;;0.10;0.10;;;;;;;21.75;100.00;99670.31;5093847;28;20198;-55
2023/08/21 04:12:50;;;;;;;0.10;0.10;;;;;;;21.77;100.00;99664.75;5092575;28;20191;-55
2023/08/21 04:15:38;;;;;;;0.10;0.10;;;;;;;21.70;100.00;99662.66;5093965;28;20191;-55
2023/08/21 04:18:25;;;;;;;0.10;0.10;;;;;;;21.70;100.00;99659.13;5091293;28;20199;-55
2023/08/21 04:21:27;;;;;;;0.10;0.10;;;;;;;21.80;100.00;99654.47;5093636;28;20706;-55
2023/08/21 04:24:13;;;;;;;0.10;0.10;;;;;;;21.71;100.00;99653.59;5093452;28;20215;-55
2023/08/21 04:27:00;;;;;;;0.10;0.10;;;;;;;21.82;100.00;99660.59;5092487;28;20195;-55
2023/08/21 04:29:48;;;;;;;0.10;0.10;;;;;;;21.86;100.00;99669.19;5093618;28;20203;-55
2023/08/21 04:32:35;;;;;;;0.10;0.10;;;;;;;21.85;100.00;99662.13;5091539;28;20199;-55
2023/08/21 04:35:23;;;;;;;0.10;0.10;;;;;;;21.68;100.00;99664.69;5092362;28;20265;-55
2023/08/21 04:38:10;;;;;;;0.10;0.10;;;;;;;21.63;100.00;99656.22;5091869;28;20241;-55
2023/08/21 04:40:57;;;;;;;0.10;0.10;;;;;;;21.63;100.00;99663.47;5092193;28;20198;-55
2023/08/21 04:43:44;;;;;;;0.10;0.10;;;;;;;21.65;100.00;99666.88;5091976;28;20253;-55
2023/08/21 04:46:32;;;;;;;0.10;0.10;;;;;;;21.69;100.00;99663.69;5091410;28;20191;-55
2023/08/21 04:49:19;;;;;;;0.10;0.10;;;;;;;21.64;100.00;99659.78;5090684;28;20276;-55
2023/08/21 04:52:06;;;;;;;0.00;0.00;;;;;;;21.71;100.00;99656.31;5092181;28;20228;-55
2023/08/21 04:54:54;;;;;;;0.10;0.10;;;;;;;21.64;100.00;99665.16;5092109;28;20190;-55
2023/08/21 04:57:41;;;;;;;0.10;0.10;;;;;;;21.69;100.00;99665.53;5092056;28;20257;-55
2023/08/21 05:00:30;;;;;;;0.10;0.10;;;;;;;21.71;100.00;99679.69;5091423;28;20194;-55
2023/08/21 05:03:19;;;;;;;0.10;0.10;;;;;;;21.65;100.00;99680.34;5090704;28;20198;-56
2023/08/21 05:06:06;;;;;;;0.20;0.20;;;;;;;21.68;100.00;99677.31;5091454;28;20694;-55
2023/08/21 05:08:54;;;;;;;0.10;0.10;;;;;;;21.67;100.00;99687.25;5091777;28;20203;-55
2023/08/21 05:11:41;;;;;;;0.10;0.10;;;;;;;21.73;100.00;99682.25;5091631;28;20194;-55
2023/08/21 05:14:29;;;;;;;0.10;0.10;;;;;;;21.73;100.00;99682.25;5091773;28;20202;-55
2023/08/21 05:17:16;;;;;;;0.10;0.10;;;;;;;21.67;100.00;99681.88;5091394;28;20542;-55
2023/08/21 05:20:06;;;;;;;0.10;0.10;;;;;;;21.80;100.00;99675.22;5092819;28;20195;-55
2023/08/21 05:22:53;;;;;;;0.10;0.10;;;;;;;21.78;100.00;99682.63;5091586;28;20198;-55
2023/08/21 05:25:39;;;;;;;0.10;0.10;;;;;;;21.79;100.00;99685.16;5090984;28;20280;-56
2023/08/21 05:28:27;;;;;;;0.10;0.10;;;;;;;21.90;100.00;99684.06;5091347;28;20198;-55
2023/08/21 05:31:14;;;;;;;0.10;0.10;;;;;;;21.94;100.00;99685.44;5091642;28;20202;-55
2023/08/21 05:34:07;;;;;;;0.10;0.10;;;;;;;22.03;100.00;99689.91;5090210;28;20687;-55
2023/08/21 05:36:56;;;;;;;0.10;0.10;;;;;;;22.03;100.00;99689.06;5091267;28;20329;-55
2023/08/21 05:39:42;;;;;;;0.10;0.10;;;;;;;22.10;100.00;99692.81;5091519;28;20191;-55
2023/08/21 05:42:29;;;;;;;0.10;0.10;;;;;;;22.19;100.00;99694.56;5092220;28;20203;-55
2023/08/21 05:45:16;;;;;;;0.10;0.10;;;;;;;22.19;100.00;99700.81;5091259;28;20296;-55
2023/08/21 05:48:04;;;;;;;0.10;0.10;;;;;;;22.23;100.00;99701.34;5091222;28;20190;-55
2023/08/21 05:50:52;;;;;;;0.10;0.10;;;;;;;22.30;100.00;99699.72;5092119;28;20297;-55
2023/08/21 05:53:40;;;;;;;0.10;0.10;;;;;;;22.36;100.00;99703.63;5092272;28;20226;-56
2023/08/21 05:56:27;;;;;;;0.00;0.00;;;;;;;22.35;100.00;99696.53;5091361;28;20191;-55
2023/08/21 05:59:26;;;;;;;0.10;0.10;;;;;;;22.30;100.00;99696.19;5092080;28;20233;-55
2023/08/21 06:02:14;;;;;;;0.10;0.10;;;;;;;22.34;100.00;99695.69;5091425;28;20202;-55
2023/08/21 06:05:03;;;;;;;0.10;0.10;;;;;;;22.46;100.00;99707.03;5091162;28;20211;-55
2023/08/21 06:07:49;;;;;;;0.10;0.10;;;;;;;22.55;100.00;99704.22;5091216;28;20321;-55
2023/08/21 06:10:38;;;;;;;0.10;0.10;;;;;;;22.48;100.00;99705.03;5091267;28;20190;-56
2023/08/21 06:13:25;;;;;;;0.10;0.10;;;;;;;22.57;100.00;99704.91;5095089;28;20202;-55
2023/08/21 06:16:14;;;;;;;0.10;0.10;;;;;;;22.70;100.00;99696.38;5095110;28;20186;-55
2023/08/21 06:19:01;;;;;;;0.10;0.10;;;;;;;22.65;100.00;99701.41;5093837;28;20273;-55
2023/08/21 06:21:48;;;;;;;0.10;0.10;;;;;;;22.71;100.00;99706.16;5096059;28;20198;-55
2023/08/21 06:24:35;;;;;;;0.10;0.10;;;;;;;22.87;100.00;99696.44;5094637;28;20199;-55
2023/08/21 06:27:26;;;;;;;0.10;0.10;;;;;;;22.80;100.00;99699.78;5094857;28;20195;-56
2023/08/21 06:30:16;;;;;;;0.10;0.10;;;;;;;22.89;100.00;99694.44;5094861;28;20198;-55
2023/08/21 06:33:04;;;;;;;0.10;0.10;;;;;;;23.00;100.00;99692.28;5093531;28;20272;-55
2023/08/21 06:35:51;;;;;;;0.10;0.10;;;;;;;23.09;100.00;99699.41;5094640;28;20296;-56
2023/08/21 06:38:38;;;;;;;0.10;0.10;;;;;;;23.24;100.00;99686.06;5094447;28;20396;-56
2023/08/21 06:41:26;;;;;;;0.10;0.10;;;;;;;23.36;100.00;99700.97;5094549;28;20276;-56
2023/08/21 06:44:14;;;;;;;0.10;0.10;;;;;;;23.54;100.00;99689.97;5095458;28;20770;-56
2023/08/21 06:47:01;;;;;;;0.10;0.10;;;;;;;23.73;100.00;99688.00;5094268;28;20226;-55
2023/08/21 06:49:49;;;;;;;0.00;0.00;;;;;;;23.96;100.00;99686.31;5093188;28;20195;-56
2023/08/21 06:52:35;;;;;;;0.10;0.10;;;;;;;24.04;100.00;99689.00;5095404;28;20257;-56
2023/08/21 06:55:23;;;;;;;0.10;0.10;;;;;;;24.19;100.00;99684.56;5095464;28;20195;-55
2023/08/21 06:58:10;;;;;;;0.10;0.10;;;;;;;24.36;100.00;99681.84;5095314;28;20226;-56
2023/08/21 07:00:58;;;;;;;0.10;0.10;;;;;;;24.57;100.00;99682.09;5095267;28;20230;-56
2023/08/21 07:03:45;;;;;;;0.10;0.10;;;;;;;24.80;100.00;99685.75;5093733;28;20195;-55
2023/08/21 07:06:32;;;;;;;0.00;0.00;;;;;;;24.70;100.00;99676.97;5095084;28;20214;-56
2023/08/21 07:09:19;;;;;;;0.10;0.10;;;;;;;24.94;100.00;99673.28;5095155;28;20199;-56
2023/08/21 07:12:07;;;;;;;0.10;0.10;;;;;;;25.07;100.00;99675.44;5094561;28;20202;-56
2023/08/21 07:14:54;;;;;;;0.10;0.10;;;;;;;25.09;100.00;99673.41;5093402;28;20236;-55
2023/08/21 07:17:42;;;;;;;0.10;0.10;;;;;;;25.08;100.00;99669.84;5093543;28;20198;-56
2023/08/21 07:20:29;;;;;;;0.00;0.00;;;;;;;25.43;100.00;99675.72;5094643;28;20198;-55
2023/08/21 07:23:16;;;;;;;0.10;0.10;;;;;;;25.66;100.00;99662.97;5094519;28;20237;-55
2023/08/21 07:26:04;;;;;;;0.00;0.00;;;;;;;25.70;100.00;99666.22;5094610;28;20218;-55
2023/08/21 07:28:52;;;;;;;0.10;0.10;;;;;;;25.85;100.00;99669.78;5094544;28;20211;-56
2023/08/21 07:31:39;;;;;;;0.10;0.10;;;;;;;26.32;100.00;99670.50;5094697;28;20273;-56
2023/08/21 07:34:27;;;;;;;0.10;0.10;;;;;;;26.08;100.00;99669.75;5093308;28;20237;-56
2023/08/21 07:37:14;;;;;;;0.10;0.10;;;;;;;26.25;100.00;99671.28;5094219;28;20218;-56
2023/08/21 07:40:01;;;;;;;0.10;0.10;;;;;;;26.53;100.00;99676.06;5094388;28;20190;-56
2023/08/21 07:42:48;;;;;;;0.00;0.00;;;;;;;26.72;100.00;99669.19;5094504;28;20195;-56
2023/08/21 07:45:38;;;;;;;0.10;0.10;;;;;;;26.93;100.00;99663.00;5094251;28;20292;-56
2023/08/21 07:48:24;;;;;;;0.10;0.10;;;;;;;26.94;100.00;99659.25;5093065;28;20202;-56
2023/08/21 07:51:13;;;;;;;0.10;0.10;;;;;;;26.82;100.00;99676.03;5094296;28;20263;-56
2023/08/21 07:54:00;;;;;;;0.00;0.00;;;;;;;27.00;100.00;99672.03;5094017;28;20210;-56
2023/08/21 07:56:47;;;;;;;0.10;0.10;;;;;;;27.12;100.00;99673.28;5094014;28;20190;-56
2023/08/21 07:59:34;;;;;;;0.10;0.10;;;;;;;27.52;100.00;99668.25;5094051;28;20237;-55
2023/08/21 08:02:21;;;;;;;0.10;0.10;;;;;;;27.62;100.00;99663.31;5093755;28;20243;-55
2023/08/21 08:05:09;;;;;;;0.00;0.00;;;;;;;27.42;100.00;99665.84;5094115;28;20199;-56
2023/08/21 08:07:57;;;;;;;0.10;0.10;;;;;;;27.56;100.00;99659.47;5094200;28;20191;-55
2023/08/21 08:10:44;;;;;;;0.10;0.10;;;;;;;27.74;100.00;99666.38;5093790;28;20203;-56
2023/08/21 08:13:32;;;;;;;0.00;0.00;;;;;;;27.78;100.00;99654.88;5094008;28;20265;-55
2023/08/21 08:16:19;;;;;;;0.00;0.00;;;;;;;27.66;100.00;99660.03;5094081;28;20187;-56
2023/08/21 08:19:06;;;;;;;0.05;0.05;;;;;;;27.81;100.00;99661.84;5092268;28;20191;-56
2023/08/21 08:21:52;;;;;;;0.00;0.00;;;;;;;28.13;100.00;99661.22;5093706;28;20198;-56
2023/08/21 08:24:41;;;;;;;0.00;0.00;;;;;;;28.57;100.00;99659.19;5093880;28;20370;-56
2023/08/21 08:27:28;;;;;;;0.00;0.00;;;;;;;28.82;100.00;99657.63;5092893;28;20309;-56
2023/08/21 08:30:16;;;;;;;0.00;0.00;;;;;;;28.83;100.00;99658.47;5093559;28;20257;-56
2023/08/21 08:33:03;;;;;;;0.00;0.00;;;;;;;29.04;100.00;99653.75;5091159;28;20194;-56
2023/08/21 08:35:50;;;;;;;0.10;0.10;;;;;;;28.99;100.00;99649.97;5091583;28;20337;-56
2023/08/21 08:38:37;;;;;;;0.00;0.00;;;;;;;28.88;100.00;99647.81;5093324;28;20556;-56
2023/08/21 08:41:34;;;;;;;0.00;0.00;;;;;;;28.88;100.00;99654.09;5093273;28;20190;-56
2023/08/21 08:44:21;;;;;;;0.08;0.08;;;;;;;29.01;100.00;99648.72;5093337;28;20206;-56
2023/08/21 08:47:08;;;;;;;0.00;0.00;;;;;;;29.03;100.00;99648.50;5093184;28;20214;-56
2023/08/21 08:49:56;;;;;;;0.00;0.00;;;;;;;29.34;100.00;99646.06;5093199;28;20183;-56
2023/08/21 08:52:44;;;;;;;0.10;0.10;;;;;;;29.13;100.00;99643.50;5093172;28;20198;-56
2023/08/21 08:55:31;;;;;;;0.00;0.00;;;;;;;29.82;100.00;99648.66;5092968;28;20190;-56
2023/08/21 08:58:19;;;;;;;0.05;0.05;;;;;;;30.11;100.00;99641.94;5092888;28;20187;-55
2023/08/21 09:01:05;;;;;;;0.00;0.00;;;;;;;30.25;100.00;99644.63;5093060;28;20227;-56
2023/08/21 09:03:53;;;;;;;0.00;0.00;;;;;;;29.69;100.00;99645.06;5091708;28;20211;-56
2023/08/21 09:06:39;;;;;;;0.00;0.00;;;;;;;30.30;100.00;99642.91;5092925;28;20210;-56
2023/08/21 09:09:26;;;;;;;0.10;0.10;;;;;;;30.36;100.00;99639.31;5092905;28;20244;-56
2023/08/21 09:12:15;;;;;;;0.03;0.03;;;;;;;30.25;100.00;99640.00;5093056;28;20190;-56
2023/08/21 09:15:08;;;;;;;0.00;0.00;;;;;;;30.47;100.00;99640.56;5092858;28;20305;-56
2023/08/21 09:17:55;;;;;;;0.00;0.00;;;;;;;30.88;100.00;99636.63;5091450;28;20222;-56
2023/08/21 09:20:43;;;;;;;0.00;0.00;;;;;;;31.14;100.00;99636.47;5091507;28;20202;-56
2023/08/21 09:23:30;;;;;;;0.00;0.00;;;;;;;30.28;100.00;99628.63;5091059;28;20267;-56
2023/08/21 09:26:21;;;;;;;0.00;0.00;;;;;;;30.71;100.00;99637.13;5092320;28;20187;-56
2023/08/21 09:29:08;;;;;;;0.00;0.00;;;;;;;30.80;100.00;99631.44;5092629;28;20366;-56
2023/08/21 09:31:58;;;;;;;0.00;0.00;;;;;;;30.57;100.00;99635.47;5092455;28;20679;-56
2023/08/21 09:34:46;;;;;;;0.00;0.00;;;;;;;30.81;100.00;99633.94;5091272;28;20194;-56
2023/08/21 09:37:32;;;;;;;0.00;0.00;;;;;;;31.11;100.00;99634.19;5092294;28;20711;-56
2023/08/21 09:40:20;;;;;;;0.00;0.00;;;;;;;31.57;100.00;99633.06;5092295;28;20195;-56
2023/08/21 09:43:07;;;;;;;0.00;0.00;;;;;;;31.67;98.33;99629.84;5092373;28;20190;-56
2023/08/21 09:45:55;;;;;;;0.00;0.00;;;;;;;31.73;98.97;99623.44;5093812;28;20198;-56
2023/08/21 09:48:45;;;;;;;0.00;0.00;;;;;;;32.08;91.63;99624.63;5095280;28;20187;-56
2023/08/21 09:51:33;;;;;;;0.00;0.00;;;;;;;32.26;91.17;99622.97;5096725;28;20195;-56
2023/08/21 09:54:19;;;;;;;0.00;0.00;;;;;;;32.34;87.73;99630.94;5096499;28;20194;-56
2023/08/21 09:57:06;;;;;;;0.08;0.08;;;;;;;32.61;85.70;99631.44;5096325;28;20210;-56
2023/08/21 09:59:54;;;;;;;0.00;0.00;;;;;;;32.61;85.05;99621.28;5096463;28;20237;-56
2023/08/21 10:02:43;;;;;;;0.10;0.10;;;;;;;32.71;86.10;99626.22;5095028;28;20206;-56
2023/08/21 10:05:32;;;;;;;0.00;0.00;;;;;;;32.10;86.74;99616.16;5096176;28;20211;-56
2023/08/21 10:08:25;;;;;;;0.00;0.00;;;;;;;32.47;84.59;99614.31;5096040;28;20222;-56
2023/08/21 10:11:14;;;;;;;0.00;0.00;;;;;;;33.25;85.67;99611.56;5096205;28;20199;-56
2023/08/21 10:14:01;;;;;;;0.00;0.00;;;;;;;33.52;83.81;99614.75;5096018;28;20198;-56
2023/08/21 10:16:48;;;;;;;0.00;0.00;;;;;;;33.70;80.22;99610.25;5095846;28;20751;-56
2023/08/21 10:19:36;;;;;;;0.00;0.00;;;;;;;33.41;79.83;99610.09;5094773;28;20257;-56
2023/08/21 10:22:44;;;;;;;0.00;0.00;;;;;;;34.06;79.44;99614.69;5095981;28;20187;-56
2023/08/21 10:25:31;;;;;;;0.00;0.00;;;;;;;33.66;78.02;99614.53;5095971;28;20206;-56
2023/08/21 10:28:18;;;;;;;0.00;0.00;;;;;;;33.88;77.40;99612.94;5095401;28;20706;-56
2023/08/21 10:31:26;;;;;;;0.00;0.00;;;;;;;34.62;77.98;99611.28;5095965;28;20229;-56
2023/08/21 10:34:14;;;;;;;0.00;0.00;;;;;;;33.15;82.45;99608.56;5094679;28;20214;-56
2023/08/21 10:37:07;;;;;;;0.00;0.00;;;;;;;34.09;72.57;99606.81;5095551;28;20219;-56
2023/08/21 10:39:57;;;;;;;0.00;0.00;;;;;;;34.47;71.84;99612.91;5095692;28;20265;-56
2023/08/21 10:42:44;;;;;;;0.00;0.00;;;;;;;34.74;72.98;99605.72;5095604;28;20206;-56
2023/08/21 10:45:31;;;;;;;0.00;0.00;;;;;;;36.48;63.42;99593.81;5095575;28;20199;-57
2023/08/21 10:48:18;;;;;;;0.00;0.00;;;;;;;37.53;56.28;99603.50;5094137;28;20709;-56
2023/08/21 10:51:08;;;;;;;0.00;0.00;;;;;;;39.10;48.59;99599.94;5095600;28;20215;-56
2023/08/21 10:53:55;;;;;;;0.00;0.00;;;;;;;41.99;37.92;99594.38;5095594;28;20191;-57
2023/08/21 10:56:43;;;;;;;0.00;0.00;;;;;;;42.60;34.83;99597.63;5095134;28;20202;-56
2023/08/21 10:59:30;;;;;;;0.00;0.00;;;;;;;43.97;35.49;99598.28;5095187;28;20199;-57
2023/08/21 11:02:17;;;;;;;0.00;0.00;;;;;;;43.96;34.13;99588.25;5095295;28;20265;-57
2023/08/21 11:05:05;;;;;;;0.00;0.00;;;;;;;43.95;32.76;99597.75;5095290;28;20210;-57
2023/08/21 11:07:52;;;;;;;0.00;0.00;;;;;;;42.77;33.22;99589.59;5094891;28;20671;-57
2023/08/21 11:10:39;;;;;;;0.00;0.00;;;;;;;42.09;34.42;99596.25;5095247;28;20194;-57
2023/08/21 11:13:27;;;;;;;0.00;0.00;;;;;;;43.13;32.16;99587.94;5095195;28;20321;-57
2023/08/21 11:16:14;;;;;;;0.00;0.00;;;;;;;45.51;28.25;99588.25;5094951;28;20191;-57
2023/08/21 11:19:04;;;;;;;0.00;0.00;;;;;;;45.51;28.89;99591.03;5093539;28;20217;-57
2023/08/21 11:21:52;;;;;;;0.00;0.00;;;;;;;46.36;26.88;99586.22;5094903;28;20590;-57
2023/08/21 11:24:44;;;;;;;0.00;0.00;;;;;;;46.00;28.28;99589.19;5094810;28;20223;-57
2023/08/21 11:27:32;;;;;;;0.00;0.00;;;;;;;47.06;27.61;99594.47;5094428;28;20210;-57
2023/08/21 11:30:20;;;;;;;0.00;0.00;;;;;;;47.88;26.57;99588.94;5094716;28;20202;-57
2023/08/21 11:33:07;;;;;;;0.00;0.00;;;;;;;48.19;26.64;99588.66;5093216;28;20768;-56
2023/08/21 11:35:57;;;;;;;0.00;0.00;;;;;;;48.42;25.89;99584.41;5094583;28;20213;-56
2023/08/21 11:38:58;;;;;;;0.00;0.00;;;;;;;47.85;24.37;99586.78;5094545;28;20190;-56
2023/08/21 11:41:54;;;;;;;0.00;0.00;;;;;;;47.23;25.10;99579.63;5094511;28;20347;-56
2023/08/21 11:44:46;;;;;;;0.00;0.00;;;;;;;50.13;22.45;99587.25;5094505;28;20202;-56
2023/08/21 11:47:36;;;;;;;0.00;0.00;;;;;;;45.77;25.50;99580.84;5092747;28;20214;-56
2023/08/21 11:50:23;;;;;;;0.00;0.00;;;;;;;47.32;25.19;99574.84;5094234;28;20213;-56
2023/08/21 11:53:11;;;;;;;0.00;0.00;;;;;;;46.78;25.77;99581.88;5094324;28;20194;-56
2023/08/21 11:55:57;;;;;;;0.00;0.00;;;;;;;46.88;25.51;99575.97;5094133;28;20256;-56
2023/08/21 11:58:47;;;;;;;0.00;0.00;;;;;;;46.41;25.49;99575.66;5094067;28;20191;-56
2023/08/21 12:01:34;;;;;;;0.00;0.00;;;;;;;45.97;26.78;99562.66;5094103;28;20222;-56
2023/08/21 12:04:23;;;;;;;0.00;0.00;;;;;;;47.52;24.49;99567.69;5092699;28;20252;-56
2023/08/21 12:07:10;;;;;;;0.00;0.00;;;;;;;49.29;24.13;99569.72;5094009;28;20202;-56
2023/08/21 12:09:56;;;;;;;0.00;0.00;;;;;;;46.46;25.42;99564.34;5092937;28;20280;-56
2023/08/21 12:12:43;;;;;;;0.00;0.00;;;;;;;47.72;25.62;99571.78;5093544;28;20305;-56
2023/08/21 12:15:30;;;;;;;0.00;0.00;;;;;;;47.21;24.87;99556.69;5093771;28;20186;-56
2023/08/21 12:18:17;;;;;;;0.00;0.00;;;;;;;47.78;24.78;99552.78;5092541;28;20198;-56
2023/08/21 12:21:07;;;;;;;0.00;0.00;;;;;;;46.16;26.88;99554.03;5093587;28;20226;-56
2023/08/21 12:23:54;;;;;;;0.00;0.00;;;;;;;46.31;27.25;99550.75;5093730;28;20237;-56
2023/08/21 12:26:41;;;;;;;0.00;0.00;;;;;;;47.45;25.37;99546.88;5093336;28;20195;-56
2023/08/21 12:29:36;;;;;;;0.00;0.00;;;;;;;44.56;27.58;99545.44;5093176;28;20229;-56
2023/08/21 12:32:23;;;;;;;0.00;0.00;;;;;;;45.99;26.95;99537.94;5092247;28;20194;-56
2023/08/21 12:35:12;;;;;;;0.00;0.00;;;;;;;45.71;27.20;99540.13;5092509;28;20233;-56
2023/08/21 12:38:05;;;;;;;0.00;0.00;;;;;;;45.63;28.69;99535.25;5093280;28;20230;-56
2023/08/21 12:40:51;;;;;;;0.00;0.00;;;;;;;48.32;25.88;99539.81;5093483;28;20256;-56
2023/08/21 12:43:38;;;;;;;0.00;0.00;;;;;;;49.00;25.55;99536.88;5093657;28;20203;-56
2023/08/21 12:46:26;;;;;;;0.00;0.00;;;;;;;46.60;27.44;99527.75;5093275;28;20195;-56
2023/08/21 12:49:13;;;;;;;0.00;0.00;;;;;;;45.52;29.66;99533.88;5091932;28;20256;-55
2023/08/21 12:52:00;;;;;;;0.00;0.00;;;;;;;47.76;27.73;99525.00;5093434;28;20224;-56
2023/08/21 12:54:48;;;;;;;0.00;0.00;;;;;;;47.04;27.33;99534.22;5093130;28;20202;-56
2023/08/21 12:57:35;;;;;;;0.00;0.00;;;;;;;47.10;27.58;99526.44;5093249;28;20732;-56
2023/08/21 13:00:22;;;;;;;0.00;0.00;;;;;;;47.29;27.01;99515.69;5092208;28;20210;-56
2023/08/21 13:03:09;;;;;;;0.00;0.00;;;;;;;44.87;29.79;99521.19;5091872;28;20220;-56